createdAt,value
2022-08-19T00:02:01.963Z,55.03
2022-08-19T00:04:37.689Z,55.23
2022-08-19T00:07:10.464Z,55.20
2022-08-19T00:09:42.960Z,55.49
2022-08-19T00:12:16.897Z,55.42
2022-08-19T00:14:49.442Z,55.66
2022-08-19T00:17:22.312Z,55.84
2022-08-19T00:19:54.806Z,55.73
2022-08-19T00:22:29.616Z,55.85
2022-08-19T00:25:02.356Z,55.84
2022-08-19T00:27:37.664Z,56.09
2022-08-19T00:30:11.615Z,56.09
2022-08-19T00:32:44.462Z,56.04
2022-08-19T00:35:18.499Z,56.41
2022-08-19T00:37:51.834Z,56.39
2022-08-19T00:40:24.577Z,56.48
2022-08-19T00:42:58.457Z,56.89
2022-08-19T00:45:36.884Z,56.60
2022-08-19T00:48:14.713Z,57.02
2022-08-19T00:50:52.070Z,57.25
2022-08-19T00:53:28.609Z,57.24
2022-08-19T00:56:03.581Z,57.20
2022-08-19T00:58:37.733Z,57.42
2022-08-19T01:01:10.306Z,57.29
2022-08-19T01:03:57.324Z,57.48
2022-08-19T01:06:33.644Z,57.64
2022-08-19T01:09:06.912Z,57.71
2022-08-19T01:11:42.148Z,57.65
2022-08-19T01:14:17.952Z,57.86
2022-08-19T01:16:55.506Z,57.83
2022-08-19T01:19:31.936Z,58.18
2022-08-19T01:22:33.306Z,58.01
2022-08-19T01:25:15.025Z,58.09
2022-08-19T01:27:50.237Z,58.25
2022-08-19T01:30:28.971Z,58.24
2022-08-19T01:33:02.133Z,58.18
2022-08-19T01:35:36.570Z,58.56
2022-08-19T01:38:20.338Z,58.36
2022-08-19T01:40:53.854Z,58.27
2022-08-19T01:43:26.733Z,58.32
2022-08-19T01:45:59.202Z,58.99
2022-08-19T01:48:36.325Z,58.63
2022-08-19T01:51:11.637Z,58.50
2022-08-19T01:53:48.755Z,58.65
2022-08-19T01:56:21.799Z,58.62
2022-08-19T01:58:57.262Z,58.55
2022-08-19T02:01:33.063Z,58.76
2022-08-19T02:04:06.815Z,58.61
2022-08-19T02:06:39.450Z,58.57
2022-08-19T02:09:13.394Z,58.95
2022-08-19T02:11:46.012Z,59.01
2022-08-19T02:14:18.642Z,59.05
2022-08-19T02:16:51.182Z,59.07
2022-08-19T02:19:23.730Z,59.22
2022-08-19T02:21:56.261Z,59.51
2022-08-19T02:24:30.151Z,59.49
2022-08-19T02:27:02.648Z,59.67
2022-08-19T02:29:35.361Z,59.72
2022-08-19T02:32:08.784Z,60.00
2022-08-19T02:34:41.549Z,59.98
2022-08-19T02:37:35.035Z,59.92
2022-08-19T02:40:12.535Z,60.13
2022-08-19T02:42:46.818Z,60.13
2022-08-19T02:45:19.842Z,60.31
2022-08-19T02:47:52.328Z,60.30
2022-08-19T02:50:24.876Z,60.66
2022-08-19T02:52:57.504Z,60.78
2022-08-19T02:55:31.390Z,60.95
2022-08-19T02:58:19.848Z,61.25
2022-08-19T03:00:56.331Z,61.57
2022-08-19T03:03:29.168Z,61.85
2022-08-19T03:06:10.364Z,62.42
2022-08-19T03:08:45.177Z,62.82
2022-08-19T03:11:22.175Z,62.98
2022-08-19T03:13:55.670Z,63.30
2022-08-19T03:16:33.375Z,63.64
2022-08-19T03:19:06.195Z,63.99
2022-08-19T03:21:38.734Z,64.40
2022-08-19T03:24:11.791Z,64.33
2022-08-19T03:26:48.773Z,64.54
2022-08-19T03:29:30.915Z,64.83
2022-08-19T03:32:06.100Z,65.00
2022-08-19T03:34:39.417Z,65.17
2022-08-19T03:37:15.668Z,65.46
2022-08-19T03:39:48.287Z,65.54
2022-08-19T03:42:38.464Z,65.72
2022-08-19T03:45:14.899Z,65.88
2022-08-19T03:47:47.346Z,65.69
2022-08-19T03:50:20.558Z,65.91
2022-08-19T03:52:53.870Z,65.90
2022-08-19T03:55:26.565Z,66.15
2022-08-19T03:58:00.580Z,66.03
2022-08-19T04:00:33.894Z,66.34
2022-08-19T04:03:06.722Z,66.26
2022-08-19T04:05:39.314Z,66.33
2022-08-19T04:08:13.914Z,66.33
2022-08-19T04:10:46.742Z,67.36
2022-08-19T04:13:20.831Z,67.50
2022-08-19T04:15:54.704Z,67.76
2022-08-19T04:18:27.367Z,67.94
2022-08-19T04:21:00.521Z,67.83
2022-08-19T04:23:33.901Z,68.02
2022-08-19T04:26:06.823Z,67.82
2022-08-19T04:28:44.115Z,67.88
2022-08-19T04:31:18.576Z,67.52
2022-08-19T04:33:51.762Z,67.92
2022-08-19T04:36:26.875Z,68.56
2022-08-19T04:39:01.956Z,68.29
2022-08-19T04:41:53.727Z,68.25
2022-08-19T04:44:32.462Z,68.46
2022-08-19T04:47:10.951Z,68.25
2022-08-19T04:49:44.317Z,67.63
2022-08-19T04:52:16.847Z,67.75
2022-08-19T04:54:49.629Z,68.25
2022-08-19T04:57:22.799Z,67.72
2022-08-19T04:59:58.600Z,67.59
2022-08-19T05:02:31.204Z,67.53
2022-08-19T05:05:04.412Z,67.73
2022-08-19T05:07:37.711Z,67.69
2022-08-19T05:10:13.816Z,67.30
2022-08-19T05:12:46.417Z,66.93
2022-08-19T05:15:20.575Z,67.21
2022-08-19T05:18:11.757Z,66.69
2022-08-19T05:21:02.880Z,65.82
2022-08-19T05:23:35.421Z,64.77
2022-08-19T05:26:10.462Z,64.79
2022-08-19T05:28:43.126Z,65.08
2022-08-19T05:31:17.300Z,64.99
2022-08-19T05:33:51.571Z,64.91
2022-08-19T05:36:24.047Z,65.16
2022-08-19T05:38:57.089Z,64.71
2022-08-19T05:41:31.598Z,64.94
2022-08-19T05:44:07.689Z,65.15
2022-08-19T05:46:44.211Z,64.75
2022-08-19T05:49:17.378Z,64.55
2022-08-19T05:51:50.525Z,64.56
2022-08-19T05:54:24.278Z,64.63
2022-08-19T05:56:56.926Z,64.32
2022-08-19T05:59:29.817Z,64.12
2022-08-19T06:02:07.629Z,63.99
2022-08-19T06:04:40.628Z,63.85
2022-08-19T06:07:13.246Z,63.45
2022-08-19T06:09:59.035Z,63.20
2022-08-19T06:12:36.722Z,63.32
2022-08-19T06:15:12.522Z,62.98
2022-08-19T06:17:46.539Z,62.48
2022-08-19T06:20:34.414Z,62.34
2022-08-19T06:23:12.809Z,62.19
2022-08-19T06:25:49.639Z,61.82
2022-08-19T06:28:23.356Z,61.86
2022-08-19T06:30:56.088Z,61.75
2022-08-19T06:33:30.049Z,61.21
2022-08-19T06:36:03.121Z,60.47
2022-08-19T06:38:35.752Z,60.34
2022-08-19T06:41:08.387Z,59.90
2022-08-19T06:43:43.722Z,59.85
2022-08-19T06:46:17.832Z,59.69
2022-08-19T06:48:54.426Z,59.61
2022-08-19T06:54:04.442Z,59.33
2022-08-19T06:56:36.981Z,59.02
2022-08-19T06:59:12.211Z,59.20
2022-08-19T07:01:48.177Z,58.90
2022-08-19T07:04:25.156Z,58.95
2022-08-19T07:06:59.869Z,59.14
2022-08-19T07:09:59.215Z,58.77
2022-08-19T07:12:36.123Z,58.73
2022-08-19T07:15:12.203Z,58.46
2022-08-19T07:17:44.797Z,58.27
2022-08-19T07:20:22.035Z,58.22
2022-08-19T07:23:01.309Z,58.11
2022-08-19T07:25:33.751Z,57.99
2022-08-19T07:28:06.599Z,57.70
2022-08-19T07:30:56.538Z,57.73
2022-08-19T07:33:31.291Z,57.70
2022-08-19T07:36:08.981Z,57.92
2022-08-19T07:38:46.344Z,57.66
2022-08-19T07:41:21.345Z,57.29
2022-08-19T07:43:54.400Z,57.11
2022-08-19T07:46:31.412Z,57.16
2022-08-19T07:49:04.620Z,57.17
2022-08-19T07:51:38.770Z,57.16
2022-08-19T07:54:12.830Z,57.39
2022-08-19T07:56:45.800Z,57.45
2022-08-19T07:59:18.752Z,57.01
2022-08-19T08:01:52.384Z,56.83
2022-08-19T08:04:43.411Z,56.87
2022-08-19T08:07:36.313Z,56.82
2022-08-19T08:10:12.596Z,56.82
2022-08-19T08:13:08.932Z,56.82
2022-08-19T08:15:43.767Z,56.75
2022-08-19T08:18:16.317Z,57.01
2022-08-19T08:20:48.877Z,56.88
2022-08-19T08:23:23.498Z,56.75
2022-08-19T08:25:59.076Z,56.55
2022-08-19T08:28:31.605Z,56.52
2022-08-19T08:31:09.651Z,56.62
2022-08-19T08:33:43.399Z,55.84
2022-08-19T08:36:16.749Z,55.79
2022-08-19T08:38:50.655Z,55.55
2022-08-19T08:41:29.571Z,55.63
2022-08-19T08:44:05.688Z,55.79
2022-08-19T08:46:43.391Z,55.32
2022-08-19T08:49:27.497Z,55.34
2022-08-19T08:52:04.486Z,55.19
2022-08-19T08:54:48.941Z,55.08
2022-08-19T08:57:40.601Z,54.69
2022-08-19T09:00:19.427Z,54.90
2022-08-19T09:02:52.280Z,54.73
2022-08-19T09:05:37.706Z,54.54
2022-08-19T09:08:24.268Z,54.83
2022-08-19T09:10:58.701Z,54.90
2022-08-19T09:13:37.982Z,54.88
2022-08-19T09:16:14.178Z,54.65
2022-08-19T09:18:54.026Z,54.93
2022-08-19T09:21:33.124Z,54.94
2022-08-19T09:24:07.354Z,54.95
2022-08-19T09:26:52.318Z,54.73
2022-08-19T09:29:25.755Z,54.92
2022-08-19T09:31:58.239Z,55.20
2022-08-19T09:34:30.740Z,55.31
2022-08-19T09:37:10.975Z,55.12
2022-08-19T09:39:43.914Z,55.19
2022-08-19T09:42:29.996Z,55.14
2022-08-19T09:45:05.147Z,55.17
2022-08-19T09:47:43.036Z,55.10
2022-08-19T09:50:16.577Z,55.43
2022-08-19T09:52:57.455Z,55.39
2022-08-19T09:55:31.196Z,55.34
2022-08-19T09:58:06.337Z,55.49
2022-08-19T10:00:39.611Z,55.07
2022-08-19T10:03:12.697Z,55.32
2022-08-19T10:05:55.106Z,55.09
2022-08-19T10:08:30.857Z,55.17
2022-08-19T10:11:27.509Z,54.85
2022-08-19T10:13:59.259Z,55.11
2022-08-19T10:16:31.859Z,54.98
2022-08-19T10:19:10.502Z,55.08
2022-08-19T10:21:43.418Z,54.70
2022-08-19T10:24:16.147Z,54.68
2022-08-19T10:26:57.271Z,54.76
2022-08-19T10:29:35.518Z,55.07
2022-08-19T10:32:10.143Z,54.73
2022-08-19T10:34:48.931Z,55.17
2022-08-19T10:37:28.808Z,55.16
2022-08-19T10:40:06.941Z,55.19
2022-08-19T10:42:39.890Z,54.79
2022-08-19T10:45:13.761Z,55.15
2022-08-19T10:47:47.887Z,55.17
2022-08-19T10:50:39.489Z,55.06
2022-08-19T10:53:12.016Z,55.10
2022-08-19T10:56:04.965Z,54.88
2022-08-19T10:58:37.373Z,54.87
2022-08-19T11:01:11.589Z,54.66
2022-08-19T11:03:46.355Z,54.64
2022-08-19T11:06:22.688Z,54.75
2022-08-19T11:08:59.684Z,54.66
2022-08-19T11:11:33.328Z,54.81
2022-08-19T11:14:14.410Z,54.73
2022-08-19T11:16:51.025Z,54.74
2022-08-19T11:19:24.941Z,54.93
2022-08-19T11:21:57.965Z,54.85
2022-08-19T11:24:32.984Z,54.98
2022-08-19T11:27:07.659Z,55.07
2022-08-19T11:29:40.529Z,55.28
2022-08-19T11:32:14.608Z,55.17
2022-08-19T11:34:47.173Z,55.56
2022-08-19T11:37:19.785Z,55.36
2022-08-19T11:39:53.699Z,55.38
2022-08-19T11:42:45.222Z,55.39
2022-08-19T11:45:18.076Z,55.63
2022-08-19T11:47:52.104Z,55.72
2022-08-19T11:50:25.558Z,55.75
2022-08-19T11:52:58.541Z,55.98
2022-08-19T11:55:31.189Z,56.12
2022-08-19T11:58:05.042Z,55.99
2022-08-19T12:00:37.849Z,56.15
2022-08-19T12:03:12.578Z,56.30
2022-08-19T12:05:45.275Z,56.53
2022-08-19T12:08:18.509Z,56.29
2022-08-19T12:10:51.014Z,56.49
2022-08-19T12:13:23.553Z,56.47
2022-08-19T12:15:56.125Z,56.63
2022-08-19T12:18:30.122Z,56.86
2022-08-19T12:21:02.585Z,56.66
2022-08-19T12:23:35.121Z,56.67
2022-08-19T12:26:09.742Z,56.58
2022-08-19T12:28:42.618Z,56.93
2022-08-19T12:31:15.550Z,57.00
2022-08-19T12:33:49.542Z,57.01
2022-08-19T12:36:23.260Z,56.76
2022-08-19T12:38:55.705Z,57.33
2022-08-19T12:41:28.220Z,57.37
2022-08-19T12:44:00.696Z,57.85
2022-08-19T12:46:33.850Z,58.09
2022-08-19T12:49:43.567Z,58.47
2022-08-19T12:52:01.517Z,58.39
2022-08-19T12:54:34.329Z,58.54
2022-08-19T12:57:09.020Z,58.51
2022-08-19T12:59:43.414Z,58.59
2022-08-19T13:02:15.905Z,58.82
2022-08-19T13:04:49.909Z,58.93
2022-08-19T13:07:22.740Z,58.96
2022-08-19T13:09:55.216Z,58.95
2022-08-19T13:12:27.841Z,58.87
2022-08-19T13:15:00.412Z,59.11
2022-08-19T13:17:34.946Z,59.09
2022-08-19T13:20:11.430Z,59.13
2022-08-19T13:22:45.757Z,58.98
2022-08-19T13:25:21.010Z,58.73
2022-08-19T13:27:54.252Z,59.06
2022-08-19T13:30:46.028Z,59.03
2022-08-19T13:33:19.018Z,59.42
2022-08-19T13:35:58.883Z,59.39
2022-08-19T13:38:31.617Z,59.77
2022-08-19T13:41:11.102Z,59.61
2022-08-19T13:43:45.881Z,59.87
2022-08-19T13:46:18.572Z,59.86
2022-08-19T13:48:51.232Z,60.08
2022-08-19T13:51:25.128Z,60.48
2022-08-19T13:53:57.660Z,60.69
2022-08-19T13:56:30.390Z,61.24
2022-08-19T13:59:03.115Z,61.54
2022-08-19T14:01:36.032Z,61.96
2022-08-19T14:04:09.160Z,62.13
2022-08-19T14:06:43.048Z,62.09
2022-08-19T14:09:15.737Z,62.20
2022-08-19T14:11:48.258Z,62.25
2022-08-19T14:14:20.753Z,62.71
2022-08-19T14:16:53.559Z,62.98
2022-08-19T14:19:26.306Z,62.92
2022-08-19T14:22:04.636Z,62.92
2022-08-19T14:24:38.509Z,63.08
2022-08-19T14:27:11.004Z,63.38
2022-08-19T14:29:43.577Z,63.45
2022-08-19T14:32:16.792Z,63.46
2022-08-19T14:34:49.595Z,63.36
2022-08-19T14:37:23.814Z,63.43
2022-08-19T14:39:57.851Z,63.20
2022-08-19T14:42:30.627Z,63.30
2022-08-19T14:45:06.255Z,63.20
2022-08-19T14:47:46.902Z,62.60
2022-08-19T14:50:20.728Z,62.69
2022-08-19T14:53:00.469Z,62.74
2022-08-19T14:55:33.209Z,62.48
2022-08-19T14:58:08.172Z,62.30
2022-08-19T15:00:41.803Z,62.44
2022-08-19T15:03:14.340Z,62.40
2022-08-19T15:05:47.185Z,62.33
2022-08-19T15:08:25.830Z,62.51
2022-08-19T15:10:59.581Z,62.18
2022-08-19T15:13:32.029Z,62.36
2022-08-19T15:16:04.996Z,62.19
2022-08-19T15:18:37.813Z,62.28
2022-08-19T15:21:10.453Z,62.13
2022-08-19T15:23:45.586Z,62.38
2022-08-19T15:26:20.439Z,62.24
2022-08-19T15:28:53.171Z,62.24
2022-08-19T15:31:28.392Z,62.74
2022-08-19T15:34:01.649Z,63.08
2022-08-19T15:36:35.498Z,63.07
2022-08-19T15:39:10.449Z,63.56
2022-08-19T15:41:43.562Z,64.14
2022-08-19T15:44:19.466Z,64.48
2022-08-19T15:46:51.974Z,64.82
2022-08-19T15:49:24.497Z,64.78
2022-08-19T15:51:58.266Z,64.83
2022-08-19T15:54:32.179Z,64.87
2022-08-19T15:57:23.447Z,64.93
2022-08-19T16:00:14.718Z,65.11
2022-08-19T16:03:08.060Z,65.43
2022-08-19T16:05:59.396Z,65.05
2022-08-19T16:08:31.898Z,65.37
2022-08-19T16:11:23.365Z,65.52
2022-08-19T16:13:58.042Z,65.46
2022-08-19T16:16:33.904Z,65.84
2022-08-19T16:19:10.410Z,65.54
2022-08-19T16:21:45.797Z,65.72
2022-08-19T16:24:20.985Z,66.14
2022-08-19T16:26:55.978Z,66.13
2022-08-19T16:29:34.725Z,65.94
2022-08-19T16:32:12.472Z,66.24
2022-08-19T16:34:45.998Z,66.27
2022-08-19T16:37:18.752Z,66.57
2022-08-19T16:39:53.276Z,66.75
2022-08-19T16:42:27.267Z,66.95
2022-08-19T16:44:59.971Z,66.69
2022-08-19T16:47:32.404Z,67.08
2022-08-19T16:50:07.674Z,67.19
2022-08-19T16:52:40.385Z,67.19
2022-08-19T16:55:13.191Z,67.13
2022-08-19T16:57:47.168Z,67.27
2022-08-19T17:00:20.689Z,67.36
2022-08-19T17:02:53.419Z,67.23
2022-08-19T17:05:26.116Z,67.25
2022-08-19T17:07:58.637Z,67.15
2022-08-19T17:10:31.327Z,67.46
2022-08-19T17:13:05.932Z,67.33
2022-08-19T17:15:38.681Z,67.49
2022-08-19T17:18:13.522Z,66.90
2022-08-19T17:20:47.981Z,66.83
2022-08-19T17:23:22.086Z,66.68
2022-08-19T17:26:18.425Z,66.46
2022-08-19T17:28:54.940Z,66.27
2022-08-19T17:31:30.195Z,65.81
2022-08-19T17:34:03.569Z,65.88
2022-08-19T17:36:36.522Z,65.36
2022-08-19T17:39:09.150Z,65.44
2022-08-19T17:41:43.029Z,65.03
2022-08-19T17:44:19.071Z,64.78
2022-08-19T17:46:53.770Z,64.51
2022-08-19T17:49:26.486Z,64.22
2022-08-19T17:51:59.879Z,63.93
2022-08-19T17:54:33.854Z,63.71
2022-08-19T17:57:06.728Z,63.48
2022-08-19T17:59:40.886Z,63.16
2022-08-19T18:02:15.302Z,63.26
2022-08-19T18:04:48.884Z,63.02
2022-08-19T18:07:22.115Z,62.82
2022-08-19T18:09:55.929Z,62.43
2022-08-19T18:12:28.412Z,62.57
2022-08-19T18:15:05.622Z,62.39
2022-08-19T18:17:38.410Z,62.40
2022-08-19T18:20:13.648Z,62.03
2022-08-19T18:22:48.753Z,62.18
2022-08-19T18:25:24.420Z,62.09
2022-08-19T18:27:59.915Z,62.11
2022-08-19T18:30:34.607Z,61.86
2022-08-19T18:33:14.419Z,61.73
2022-08-19T18:35:49.199Z,61.58
2022-08-19T18:38:41.996Z,61.68
2022-08-19T18:41:34.144Z,61.46
2022-08-19T18:44:25.240Z,61.34
2022-08-19T18:47:21.371Z,61.21
2022-08-19T18:49:53.942Z,61.38
2022-08-19T18:52:27.361Z,61.27
2022-08-19T18:54:59.885Z,61.16
2022-08-19T18:57:32.450Z,61.22
2022-08-19T19:00:06.213Z,60.98
2022-08-19T19:02:40.182Z,60.89
2022-08-19T19:05:14.004Z,60.87
2022-08-19T19:07:46.506Z,60.90
2022-08-19T19:10:19.468Z,61.12
2022-08-19T19:12:52.063Z,60.80
2022-08-19T19:15:24.588Z,60.99
2022-08-19T19:18:00.728Z,60.50
2022-08-19T19:20:36.271Z,60.92
2022-08-19T19:23:09.277Z,60.83
2022-08-19T19:25:49.890Z,61.06
2022-08-19T19:28:27.659Z,61.21
2022-08-19T19:31:00.193Z,61.10
2022-08-19T19:33:34.529Z,61.15
2022-08-19T19:36:07.454Z,60.88
2022-08-19T19:38:48.039Z,61.13
2022-08-19T19:41:26.239Z,60.94
2022-08-19T19:44:29.799Z,60.69
2022-08-19T19:46:55.932Z,60.86
2022-08-19T19:49:32.169Z,60.81
2022-08-19T19:52:04.911Z,60.66
2022-08-19T19:54:38.610Z,60.89
2022-08-19T19:57:20.312Z,60.68
2022-08-19T19:59:54.330Z,60.59
2022-08-19T20:02:27.169Z,60.91
2022-08-19T20:05:01.599Z,60.92
2022-08-19T20:07:54.923Z,60.69
2022-08-19T20:10:28.104Z,60.72
2022-08-19T20:13:02.555Z,60.68
2022-08-19T20:15:41.722Z,60.75
2022-08-19T20:18:15.058Z,60.53
2022-08-19T20:20:50.281Z,60.33
2022-08-19T20:23:23.878Z,60.60
2022-08-19T20:25:56.436Z,60.44
2022-08-19T20:28:30.259Z,60.74
2022-08-19T20:31:03.049Z,60.64
2022-08-19T20:33:38.269Z,60.69
2022-08-19T20:36:12.262Z,60.74
2022-08-19T20:38:44.735Z,60.83
2022-08-19T20:41:17.836Z,60.66
2022-08-19T20:43:50.599Z,60.60
2022-08-19T20:46:23.093Z,60.71
2022-08-19T20:48:56.093Z,60.51
2022-08-19T20:51:32.517Z,60.57
2022-08-19T20:54:05.425Z,60.45
2022-08-19T20:56:38.225Z,60.56
2022-08-19T20:59:12.069Z,60.41
2022-08-19T21:01:44.599Z,60.18
2022-08-19T21:04:17.238Z,60.44
2022-08-19T21:06:51.298Z,60.27
2022-08-19T21:09:23.739Z,59.87
2022-08-19T21:11:56.386Z,59.91
2022-08-19T21:14:28.908Z,59.92
2022-08-19T21:17:01.341Z,59.71
2022-08-19T21:19:33.886Z,59.56
2022-08-19T21:22:07.919Z,59.54
2022-08-19T21:24:42.403Z,59.53
2022-08-19T21:27:14.838Z,59.63
2022-08-19T21:29:47.349Z,59.53
2022-08-19T21:32:20.134Z,59.40
2022-08-19T21:34:53.082Z,59.53
2022-08-19T21:37:27.018Z,59.50
2022-08-19T21:39:59.904Z,59.44
2022-08-19T21:42:32.444Z,59.45
2022-08-19T21:45:06.213Z,59.38
2022-08-19T21:47:38.770Z,59.26
2022-08-19T21:50:12.496Z,59.23
2022-08-19T21:52:47.022Z,59.56
2022-08-19T21:55:20.287Z,59.34
2022-08-19T21:57:52.818Z,59.55
2022-08-19T22:00:26.144Z,59.39
2022-08-19T22:02:59.069Z,59.38
2022-08-19T22:05:33.477Z,59.48
2022-08-19T22:08:07.389Z,59.70
2022-08-19T22:10:40.062Z,59.77
2022-08-19T22:13:12.740Z,59.66
2022-08-19T22:15:46.205Z,59.32
2022-08-19T22:18:19.070Z,59.48
2022-08-19T22:20:51.682Z,59.57
2022-08-19T22:23:25.676Z,59.53
2022-08-19T22:25:58.261Z,59.52
2022-08-19T22:28:30.717Z,59.62
2022-08-19T22:31:03.696Z,59.64
2022-08-19T22:33:37.538Z,59.76
2022-08-19T22:36:10.228Z,59.72
2022-08-19T22:38:44.114Z,59.72
2022-08-19T22:41:16.565Z,59.94
2022-08-19T22:43:49.038Z,59.87
2022-08-19T22:46:21.745Z,60.07
2022-08-19T22:48:56.710Z,60.05
2022-08-19T22:51:52.468Z,60.11
2022-08-19T22:54:26.479Z,60.24
2022-08-19T22:56:59.158Z,60.22
2022-08-19T22:59:31.632Z,60.11
2022-08-19T23:02:04.865Z,60.35
2022-08-19T23:04:37.892Z,60.20
2022-08-19T23:07:10.505Z,60.05
2022-08-19T23:09:44.570Z,60.30
2022-08-19T23:12:26.807Z,60.21
2022-08-19T23:15:02.377Z,60.14
2022-08-19T23:17:36.711Z,60.03
2022-08-19T23:20:11.409Z,60.45
2022-08-19T23:22:46.377Z,60.41
2022-08-19T23:25:23.948Z,60.36
2022-08-19T23:28:15.358Z,60.17
2022-08-19T23:30:49.363Z,60.38
2022-08-19T23:33:25.199Z,60.63
2022-08-19T23:36:00.033Z,60.56
2022-08-19T23:38:32.911Z,60.55
2022-08-19T23:41:09.073Z,60.59
2022-08-19T23:43:43.162Z,60.78
2022-08-19T23:46:27.463Z,60.70
2022-08-19T23:49:01.416Z,60.73
2022-08-19T23:51:33.806Z,60.63
2022-08-19T23:54:06.395Z,60.85
2022-08-19T23:56:40.394Z,60.88
2022-08-19T23:59:13.024Z,60.70
